Time;durP1;ratioP1;P1;durP2;ratioP2;P2;SDS_P1;SDS_P2;PMS_P1;PMS_P2;Temp;Humidity;BMP_temperature;BMP_pressure;BME280_temperature;BME280_humidity;BME280_pressure;Samples;Min_cycle;Max_cycle;Signal;HPM_P1;HPM_P2
2021/05/10 00:01:19;;;;;;;0.93;0.75;;;;;;;16.09;53.50;95486.81;5076511;28;20048;-76
2021/05/10 00:03:45;;;;;;;0.80;0.65;;;;;;;16.06;53.66;95492.66;5075638;28;20040;-76
2021/05/10 00:06:12;;;;;;;0.77;0.77;;;;;;;16.03;53.78;95500.06;5075794;28;20045;-76
2021/05/10 00:08:38;;;;;;;1.48;0.90;;;;;;;16.02;53.93;95487.09;5075786;28;20041;-76
2021/05/10 00:11:04;;;;;;;0.95;0.88;;;;;;;16.00;54.11;95489.25;5075560;28;20492;-76
2021/05/10 00:13:30;;;;;;;0.77;0.77;;;;;;;15.99;54.17;95483.16;5075115;28;20059;-76
2021/05/10 00:15:57;;;;;;;1.63;0.93;;;;;;;15.96;54.04;95478.44;5075285;28;20481;-76
2021/05/10 00:18:23;;;;;;;1.10;1.00;;;;;;;15.92;54.03;95471.34;5075435;28;20033;-76
2021/05/10 00:20:49;;;;;;;1.27;0.80;;;;;;;15.89;54.20;95474.53;5075474;28;20051;-76
2021/05/10 00:23:18;;;;;;;0.88;0.88;;;;;;;15.86;54.33;95470.56;5074804;28;20063;-76
2021/05/10 00:25:45;;;;;;;1.20;0.90;;;;;;;15.83;54.27;95469.28;5074063;28;20051;-76
2021/05/10 00:28:21;;;;;;;1.85;0.60;;;;;;;15.78;54.40;95456.09;5064320;28;20079;-76
2021/05/10 00:30:48;;;;;;;0.70;0.70;;;;;;;15.76;54.40;95449.50;5075517;28;20052;-76
2021/05/10 00:33:14;;;;;;;1.35;0.85;;;;;;;15.72;54.41;95453.75;5074823;28;20043;-76
2021/05/10 00:35:40;;;;;;;0.98;0.60;;;;;;;15.67;54.42;95459.06;5075090;28;20386;-76
2021/05/10 00:38:06;;;;;;;0.60;0.60;;;;;;;15.63;54.50;95458.81;5073821;28;20036;-76
2021/05/10 00:40:34;;;;;;;3.75;0.60;;;;;;;15.61;54.51;95466.22;5075132;28;20052;-76
2021/05/10 00:43:00;;;;;;;0.80;0.80;;;;;;;15.59;54.54;95466.47;5075149;28;20044;-76
2021/05/10 00:45:27;;;;;;;0.80;0.80;;;;;;;15.57;54.49;95459.91;5074956;28;20453;-76
2021/05/10 00:47:54;;;;;;;0.80;0.80;;;;;;;15.54;54.37;95460.41;5074539;28;20107;-76
2021/05/10 00:50:21;;;;;;;0.95;0.93;;;;;;;15.50;54.51;95464.69;5074467;28;20047;-76
2021/05/10 00:52:48;;;;;;;0.93;0.90;;;;;;;15.43;54.37;95465.78;5074836;28;20059;-76
2021/05/10 00:55:14;;;;;;;1.10;0.70;;;;;;;15.37;54.40;95448.38;5074339;28;20052;-76
2021/05/10 00:57:53;;;;;;;1.30;0.70;;;;;;;15.32;54.47;95452.91;5074907;28;20036;-77
2021/05/10 01:00:28;;;;;;;1.02;0.80;;;;;;;15.25;54.52;95444.50;5074665;28;20071;-76
2021/05/10 01:03:08;;;;;;;0.80;0.80;;;;;;;15.19;54.69;95438.44;5073736;28;20076;-76
2021/05/10 01:05:36;;;;;;;0.73;0.73;;;;;;;15.14;54.71;95441.91;5074076;28;20039;-76
2021/05/10 01:08:05;;;;;;;0.80;0.80;;;;;;;15.09;54.59;95436.63;5074483;28;20396;-76
2021/05/10 01:10:31;;;;;;;0.70;0.70;;;;;;;15.03;54.63;95437.69;5075059;28;20045;-76
2021/05/10 01:12:58;;;;;;;1.33;0.80;;;;;;;14.98;54.66;95429.81;5074172;28;20044;-76
2021/05/10 01:15:26;;;;;;;0.98;0.85;;;;;;;14.91;54.77;95432.75;5074295;28;20057;-76
2021/05/10 01:17:53;;;;;;;2.13;0.82;;;;;;;14.87;54.74;95436.19;5073895;28;20036;-76
2021/05/10 01:20:20;;;;;;;0.88;0.88;;;;;;;14.85;54.76;95435.69;5073613;28;20056;-76
2021/05/10 01:22:51;;;;;;;1.15;1.08;;;;;;;14.81;54.45;95438.06;5073697;28;20491;-76
2021/05/10 01:25:24;;;;;;;0.80;0.80;;;;;;;14.78;54.59;95431.47;5072808;28;20024;-76
2021/05/10 01:27:52;;;;;;;0.73;0.73;;;;;;;14.75;54.72;95424.09;5074448;28;20051;-76
2021/05/10 01:30:26;;;;;;;1.25;0.70;;;;;;;14.71;54.81;95424.88;5073899;28;20052;-76
2021/05/10 01:32:53;;;;;;;1.60;0.90;;;;;;;14.68;54.60;95417.50;5074138;28;20035;-76
2021/05/10 01:35:26;;;;;;;0.70;0.70;;;;;;;14.67;54.58;95421.22;5073731;28;20051;-76
2021/05/10 01:37:52;;;;;;;1.77;0.70;;;;;;;14.64;54.66;95422.53;5074626;28;20025;-76
2021/05/10 01:40:19;;;;;;;1.08;0.85;;;;;;;14.64;54.68;95419.91;5073697;28;20036;-76
2021/05/10 01:42:45;;;;;;;1.05;0.77;;;;;;;14.62;54.69;95416.75;5073585;28;20036;-76
2021/05/10 01:45:12;;;;;;;0.57;0.57;;;;;;;14.60;54.73;95411.72;5074017;28;20040;-76
2021/05/10 01:47:38;;;;;;;0.90;0.90;;;;;;;14.60;54.73;95416.22;5073579;28;20043;-76
2021/05/10 01:50:10;;;;;;;1.25;0.80;;;;;;;14.58;54.56;95405.94;5073804;28;20461;-79
2021/05/10 01:52:36;;;;;;;0.80;0.80;;;;;;;14.59;54.72;95406.72;5073611;28;20028;-79
2021/05/10 01:55:04;;;;;;;1.00;0.70;;;;;;;14.60;54.69;95403.81;5073569;28;20048;-79
2021/05/10 01:57:30;;;;;;;1.40;0.90;;;;;;;14.60;54.79;95401.19;5073391;28;20028;-79
2021/05/10 01:59:56;;;;;;;0.73;0.73;;;;;;;14.59;54.89;95404.06;5073887;28;20059;-79
2021/05/10 02:02:22;;;;;;;1.33;0.82;;;;;;;14.58;54.99;95387.47;5073899;28;20041;-79
2021/05/10 02:05:26;;;;;;;0.60;0.60;;;;;;;14.53;55.43;95391.91;5073127;28;20036;-78
2021/05/10 02:07:54;;;;;;;0.88;0.68;;;;;;;14.48;55.33;95402.50;5072455;28;20044;-78
2021/05/10 02:10:26;;;;;;;0.80;0.80;;;;;;;14.47;55.03;95399.09;5072996;28;20040;-79
2021/05/10 02:12:56;;;;;;;0.90;0.70;;;;;;;14.46;55.27;95399.34;5059848;28;20028;-79
2021/05/10 02:15:24;;;;;;;0.70;0.70;;;;;;;14.49;55.28;95404.06;5073151;28;20392;-78
2021/05/10 02:17:50;;;;;;;0.80;0.80;;;;;;;14.50;55.22;95403.81;5073123;28;20044;-79
2021/05/10 02:20:19;;;;;;;0.63;0.63;;;;;;;14.53;55.09;95410.38;5072957;28;20037;-78
2021/05/10 02:22:52;;;;;;;0.70;0.70;;;;;;;14.52;54.83;95401.69;5073387;28;20048;-79
2021/05/10 02:25:21;;;;;;;0.95;0.88;;;;;;;14.49;54.89;95404.88;5073020;28;20041;-79
2021/05/10 02:27:47;;;;;;;0.73;0.73;;;;;;;14.47;55.12;95409.63;5073166;28;20032;-79
2021/05/10 02:30:14;;;;;;;0.82;0.75;;;;;;;14.44;55.07;95409.38;5073783;28;20167;-76
2021/05/10 02:32:42;;;;;;;0.77;0.73;;;;;;;14.40;55.04;95412.56;5072910;28;20048;-76
2021/05/10 02:35:09;;;;;;;1.00;0.85;;;;;;;14.37;55.16;95409.66;5072956;28;20044;-76
2021/05/10 02:37:35;;;;;;;0.90;0.90;;;;;;;14.30;55.30;95395.94;5073024;28;20047;-76
2021/05/10 02:40:03;;;;;;;1.13;0.80;;;;;;;14.25;55.32;95398.59;5071981;28;20051;-77
2021/05/10 02:42:30;;;;;;;0.60;0.60;;;;;;;14.20;55.35;95392.28;5072789;28;20487;-76
2021/05/10 02:44:56;;;;;;;1.40;1.02;;;;;;;14.15;55.63;95388.84;5071657;28;20040;-77
2021/05/10 02:47:22;;;;;;;0.68;0.65;;;;;;;14.12;55.68;95392.81;5072507;28;20503;-76
2021/05/10 02:49:48;;;;;;;1.42;1.30;;;;;;;14.08;55.75;95394.41;5071243;28;20051;-76
2021/05/10 02:52:14;;;;;;;0.93;0.70;;;;;;;14.05;55.98;95404.66;5073099;28;20028;-76
2021/05/10 02:54:41;;;;;;;0.98;0.90;;;;;;;14.00;56.11;95400.19;5072641;28;20237;-76
2021/05/10 02:57:07;;;;;;;1.00;0.88;;;;;;;13.96;56.36;95407.88;5072775;28;20041;-76
2021/05/10 02:59:33;;;;;;;0.95;0.77;;;;;;;13.92;56.25;95401.53;5071719;28;20123;-76
2021/05/10 03:01:59;;;;;;;1.00;1.00;;;;;;;13.89;56.47;95404.69;5072947;28;20484;-76
2021/05/10 03:04:25;;;;;;;0.68;0.68;;;;;;;13.86;56.62;95415.78;5073044;28;20369;-76
2021/05/10 03:06:51;;;;;;;0.80;0.80;;;;;;;13.87;56.41;95421.81;5072675;28;20053;-77
2021/05/10 03:09:18;;;;;;;0.98;0.80;;;;;;;13.84;56.49;95415.25;5071541;28;20423;-76
2021/05/10 03:11:45;;;;;;;1.55;1.00;;;;;;;13.81;56.78;95416.53;5072979;28;20037;-76
2021/05/10 03:14:11;;;;;;;0.90;0.90;;;;;;;13.78;56.70;95418.94;5072684;28;20043;-77
2021/05/10 03:16:37;;;;;;;0.85;0.70;;;;;;;13.76;56.93;95429.72;5073069;28;20032;-76
2021/05/10 03:19:09;;;;;;;0.70;0.70;;;;;;;13.75;56.88;95429.97;5073237;28;20048;-77
2021/05/10 03:21:40;;;;;;;1.50;0.80;;;;;;;13.74;57.30;95458.16;5071645;28;20065;-76
2021/05/10 03:24:07;;;;;;;0.73;0.73;;;;;;;13.78;57.28;95479.53;5067312;28;20032;-76
2021/05/10 03:26:34;;;;;;;0.88;0.88;;;;;;;13.79;57.30;95487.16;5076042;28;20037;-76
2021/05/10 03:29:01;;;;;;;0.70;0.70;;;;;;;13.83;57.40;95497.97;5076503;28;20040;-76
2021/05/10 03:31:27;;;;;;;0.70;0.70;;;;;;;13.84;57.36;95493.47;5076742;28;20059;-76
2021/05/10 03:33:54;;;;;;;1.00;1.00;;;;;;;13.77;57.33;95502.47;5076200;28;20049;-76
2021/05/10 03:36:21;;;;;;;1.10;1.00;;;;;;;13.73;57.60;95496.13;5076030;28;20043;-76
2021/05/10 03:38:47;;;;;;;1.05;1.00;;;;;;;13.73;57.82;95504.03;5076050;28;20473;-76
2021/05/10 03:41:13;;;;;;;1.70;1.05;;;;;;;13.74;58.07;95502.97;5075608;28;20067;-76
2021/05/10 03:43:39;;;;;;;0.88;0.80;;;;;;;13.75;58.19;95494.03;5075877;28;20044;-76
2021/05/10 03:46:06;;;;;;;1.55;1.02;;;;;;;13.75;58.17;95495.84;5075431;28;20048;-76
2021/05/10 03:48:32;;;;;;;1.63;1.00;;;;;;;13.75;58.17;95488.75;5076141;28;20041;-76
2021/05/10 03:50:58;;;;;;;0.93;0.90;;;;;;;13.76;58.42;95500.06;5075766;28;20060;-76
2021/05/10 03:53:25;;;;;;;1.05;0.88;;;;;;;13.77;58.61;95499.81;5076061;28;20388;-76
2021/05/10 03:55:51;;;;;;;2.42;1.10;;;;;;;13.81;58.67;95505.34;5075497;28;20624;-76
2021/05/10 03:58:18;;;;;;;1.17;1.00;;;;;;;13.82;58.64;95504.31;5075353;28;20382;-76
2021/05/10 04:00:44;;;;;;;1.75;0.90;;;;;;;13.85;58.56;95516.94;5076258;28;20041;-76
2021/05/10 04:03:13;;;;;;;2.35;0.88;;;;;;;13.86;58.47;95531.72;5075834;28;20496;-76
2021/05/10 04:14:00;;;;;;;0.90;0.90;;;;;;;13.79;58.82;95499.53;5075705;28;20044;-76
2021/05/10 04:16:27;;;;;;;1.00;1.00;;;;;;;13.78;58.87;95479.53;5075853;28;20478;-76
2021/05/10 04:18:54;;;;;;;3.38;1.23;;;;;;;13.80;59.17;95494.03;5074689;28;20044;-76
2021/05/10 04:21:20;;;;;;;1.23;1.10;;;;;;;13.83;59.18;95481.38;5075045;28;20396;-76
2021/05/10 04:23:47;;;;;;;1.40;1.20;;;;;;;13.86;59.11;95472.94;5076023;28;20041;-76
2021/05/10 04:26:13;;;;;;;1.02;1.00;;;;;;;13.90;59.16;95474.00;5075039;28;20033;-76
2021/05/10 04:28:39;;;;;;;1.35;1.13;;;;;;;13.95;59.33;95474.00;5075681;28;20037;-76
2021/05/10 04:31:05;;;;;;;1.33;1.00;;;;;;;13.97;58.96;95464.00;5074587;28;20469;-79
2021/05/10 04:33:33;;;;;;;2.10;1.10;;;;;;;14.01;59.00;95470.31;5074884;28;20044;-79
2021/05/10 04:36:00;;;;;;;1.33;0.77;;;;;;;14.04;58.86;95450.56;5058868;28;20061;-79
2021/05/10 04:38:28;;;;;;;1.33;1.23;;;;;;;14.10;58.82;95444.22;5075010;28;20036;-79
2021/05/10 04:40:55;;;;;;;0.90;0.90;;;;;;;14.15;58.75;95445.03;5075145;28;20063;-79
2021/05/10 04:43:23;;;;;;;1.48;0.90;;;;;;;14.24;58.58;95450.56;5074487;28;20421;-79
2021/05/10 04:45:49;;;;;;;1.38;0.93;;;;;;;14.33;58.21;95453.44;5074571;28;20037;-79
2021/05/10 04:48:16;;;;;;;2.50;0.95;;;;;;;14.44;58.25;95451.56;5075117;28;20033;-79
2021/05/10 04:50:42;;;;;;;1.70;1.00;;;;;;;14.52;57.99;95446.53;5074047;28;20408;-79
2021/05/10 04:53:12;;;;;;;1.05;0.82;;;;;;;14.61;57.36;95449.44;5074695;28;20071;-79
2021/05/10 04:55:41;;;;;;;1.75;1.02;;;;;;;14.69;57.49;95451.53;5074491;28;20037;-79
2021/05/10 04:58:08;;;;;;;1.08;0.98;;;;;;;14.77;57.41;95455.50;5075065;28;20041;-79
2021/05/10 05:00:34;;;;;;;1.27;1.10;;;;;;;14.82;57.06;95450.19;5074227;28;20063;-79
2021/05/10 05:03:00;;;;;;;2.70;1.13;;;;;;;14.86;56.83;95456.50;5074628;28;20044;-79
2021/05/10 05:05:26;;;;;;;1.10;0.98;;;;;;;14.91;56.97;95453.88;5074814;28;20045;-79
2021/05/10 05:07:53;;;;;;;1.73;1.00;;;;;;;14.98;57.10;95459.63;5074141;28;20039;-79
2021/05/10 05:10:20;;;;;;;1.05;0.90;;;;;;;15.02;57.31;95476.53;5074263;28;20039;-79
2021/05/10 05:12:50;;;;;;;2.10;1.23;;;;;;;15.08;57.46;95473.88;5074756;28;20500;-78
2021/05/10 05:15:18;;;;;;;1.10;0.85;;;;;;;15.08;56.91;95469.38;5074696;28;20051;-78
2021/05/10 05:17:45;;;;;;;1.20;1.00;;;;;;;15.11;57.27;95473.31;5073812;28;20059;-79
2021/05/10 05:20:12;;;;;;;0.95;0.82;;;;;;;15.13;57.44;95479.91;5074487;28;20481;-79
2021/05/10 05:22:38;;;;;;;1.10;1.05;;;;;;;15.15;57.61;95477.00;5073895;28;20392;-79
2021/05/10 05:25:06;;;;;;;0.93;0.88;;;;;;;15.18;57.93;95487.00;5074248;28;20040;-78
2021/05/10 05:27:32;;;;;;;1.08;1.00;;;;;;;15.23;58.06;95493.06;5073760;28;20037;-78
2021/05/10 05:29:58;;;;;;;1.10;1.00;;;;;;;15.24;58.20;95496.50;5074619;28;20040;-78
2021/05/10 05:32:25;;;;;;;0.85;0.85;;;;;;;15.28;58.20;95504.69;5073668;28;20037;-79
2021/05/10 05:34:52;;;;;;;0.70;0.70;;;;;;;15.29;58.43;95509.72;5074104;28;20416;-79
2021/05/10 05:37:18;;;;;;;1.38;0.85;;;;;;;15.33;58.10;95513.38;5073615;28;20040;-78
2021/05/10 05:39:44;;;;;;;1.00;0.90;;;;;;;15.37;58.52;95509.16;5073728;28;20044;-78
2021/05/10 05:42:11;;;;;;;0.80;0.80;;;;;;;15.43;58.49;95517.81;5073520;28;20389;-78
2021/05/10 05:44:38;;;;;;;0.93;0.90;;;;;;;15.47;58.61;95531.28;5073652;28;20045;-78
2021/05/10 05:47:05;;;;;;;1.27;0.90;;;;;;;15.52;58.47;95529.41;5073145;28;20409;-79
2021/05/10 05:49:34;;;;;;;0.70;0.70;;;;;;;15.57;58.62;95528.59;5073240;28;20052;-78
2021/05/10 05:52:04;;;;;;;0.98;0.75;;;;;;;15.60;59.36;95534.13;5073694;28;20037;-79
2021/05/10 05:54:32;;;;;;;3.05;0.85;;;;;;;15.63;58.78;95543.38;5073921;28;20033;-79
2021/05/10 05:56:59;;;;;;;0.85;0.70;;;;;;;15.66;58.74;95547.31;5074152;28;20036;-78
2021/05/10 05:59:26;;;;;;;1.60;1.50;;;;;;;15.70;58.71;95554.44;5073442;28;20405;-78
2021/05/10 06:01:53;;;;;;;1.42;0.93;;;;;;;15.75;58.92;95554.44;5073367;28;20477;-78
2021/05/10 06:04:19;;;;;;;1.20;1.00;;;;;;;15.77;58.98;95560.25;5072911;28;20119;-79
2021/05/10 06:06:45;;;;;;;2.05;1.00;;;;;;;15.80;58.98;95564.19;5073282;28;20033;-77
2021/05/10 06:09:11;;;;;;;1.55;0.90;;;;;;;15.81;58.86;95557.84;5073251;28;20053;-76
2021/05/10 06:11:38;;;;;;;1.27;1.10;;;;;;;15.83;58.84;95553.06;5073099;28;20047;-76
2021/05/10 06:14:05;;;;;;;2.20;0.95;;;;;;;15.87;58.67;95545.38;5073120;28;20404;-76
2021/05/10 06:16:31;;;;;;;1.00;0.90;;;;;;;15.92;58.55;95556.72;5073227;28;20032;-76
2021/05/10 06:18:58;;;;;;;1.33;1.17;;;;;;;15.97;58.30;95546.09;5073469;28;20384;-76
2021/05/10 06:21:25;;;;;;;2.20;1.33;;;;;;;16.05;58.25;95544.75;5073514;28;20040;-76
2021/05/10 06:23:52;;;;;;;0.75;0.75;;;;;;;16.15;58.02;95535.97;5073560;28;20385;-76
2021/05/10 06:26:18;;;;;;;2.03;0.80;;;;;;;16.24;57.92;95534.31;5073027;28;20040;-76
2021/05/10 06:28:45;;;;;;;0.80;0.80;;;;;;;16.36;57.64;95547.97;5073683;28;20037;-76
2021/05/10 06:31:12;;;;;;;1.05;0.73;;;;;;;16.50;56.85;95537.53;5072917;28;20048;-76
2021/05/10 06:33:38;;;;;;;1.25;1.10;;;;;;;16.64;56.39;95537.69;5073163;28;20089;-76
2021/05/10 06:36:05;;;;;;;0.70;0.70;;;;;;;16.75;55.94;95536.50;5071809;28;20040;-76
2021/05/10 06:38:33;;;;;;;1.15;0.80;;;;;;;16.89;55.48;95530.63;5073238;28;20036;-76
2021/05/10 06:41:00;;;;;;;1.95;1.00;;;;;;;17.01;54.89;95525.72;5072514;28;20123;-76
2021/05/10 06:43:26;;;;;;;0.68;0.68;;;;;;;17.11;54.42;95525.59;5073062;28;20389;-76
2021/05/10 06:45:52;;;;;;;1.80;1.00;;;;;;;17.24;53.87;95540.03;5073159;28;20365;-77
2021/05/10 06:48:33;;;;;;;1.23;0.80;;;;;;;17.38;53.55;95550.75;5073278;28;20052;-76
2021/05/10 06:51:00;;;;;;;1.38;0.80;;;;;;;17.48;53.06;95552.50;5063339;28;20041;-76
2021/05/10 06:53:27;;;;;;;1.95;0.70;;;;;;;17.59;52.61;95553.94;5072796;28;20040;-76
2021/05/10 06:55:55;;;;;;;0.85;0.75;;;;;;;17.72;52.03;95568.34;5073074;28;20396;-76
2021/05/10 06:58:22;;;;;;;1.50;0.70;;;;;;;17.83;51.74;95562.69;5075813;28;20107;-76
2021/05/10 07:00:54;;;;;;;1.52;0.63;;;;;;;18.21;50.19;95567.22;5077077;28;20146;-76
2021/05/10 07:03:20;;;;;;;0.73;0.52;;;;;;;18.70;50.73;95565.91;5076885;28;20032;-76
2021/05/10 07:05:48;;;;;;;2.25;0.55;;;;;;;19.08;49.49;95559.72;5076402;28;20051;-76
2021/05/10 07:08:16;;;;;;;5.78;1.00;;;;;;;19.27;48.96;95577.16;5077207;28;20040;-76
2021/05/10 07:10:48;;;;;;;2.00;1.50;;;;;;;19.25;51.34;95587.28;5076554;28;20036;-76
2021/05/10 07:13:15;;;;;;;2.30;1.55;;;;;;;19.10;49.49;95574.28;5077026;28;20388;-76
2021/05/10 07:15:42;;;;;;;3.70;1.63;;;;;;;19.01;50.20;95584.81;5076577;28;20028;-76
2021/05/10 07:18:12;;;;;;;2.50;1.35;;;;;;;18.95;50.81;95590.50;5075976;28;20059;-76
2021/05/10 07:20:41;;;;;;;1.55;1.45;;;;;;;18.95;51.64;95598.47;5076243;28;20032;-76
2021/05/10 07:23:08;;;;;;;3.88;1.70;;;;;;;18.94;52.41;95597.69;5076183;28;20037;-76
2021/05/10 07:25:40;;;;;;;2.17;1.70;;;;;;;19.03;52.87;95611.09;5076500;28;20041;-76
2021/05/10 07:28:10;;;;;;;1.77;1.50;;;;;;;19.21;53.34;95604.13;5075800;28;20060;-75
2021/05/10 07:30:37;;;;;;;1.45;1.30;;;;;;;19.56;53.52;95618.63;5076063;28;20396;-75
2021/05/10 07:33:04;;;;;;;1.77;1.15;;;;;;;19.86;53.42;95619.94;5076666;28;20045;-76
2021/05/10 07:35:31;;;;;;;3.60;1.40;;;;;;;20.12;53.03;95623.94;5075427;28;20457;-75
2021/05/10 07:37:59;;;;;;;3.40;1.70;;;;;;;20.17;52.20;95623.81;5076049;28;20040;-76
2021/05/10 07:40:26;;;;;;;1.85;1.35;;;;;;;20.14;51.92;95613.75;5075673;28;20032;-76
2021/05/10 07:42:53;;;;;;;1.33;1.23;;;;;;;20.10;52.12;95632.22;5074281;28;20047;-76
2021/05/10 07:45:20;;;;;;;2.30;1.10;;;;;;;20.00;51.55;95632.44;5075799;28;20366;-76
2021/05/10 07:47:49;;;;;;;1.00;0.95;;;;;;;19.87;51.85;95628.72;5075626;28;20045;-76
2021/05/10 07:50:15;;;;;;;1.17;1.15;;;;;;;19.73;51.83;95617.28;5076332;28;20416;-76
2021/05/10 07:52:42;;;;;;;1.50;1.10;;;;;;;19.90;52.26;95612.13;5075893;28;20041;-76
2021/05/10 07:55:08;;;;;;;4.07;1.25;;;;;;;20.55;51.99;95607.53;5076306;28;20461;-76
2021/05/10 07:57:35;;;;;;;2.35;1.00;;;;;;;21.26;51.38;95603.16;5075553;28;20049;-76
2021/05/10 08:00:06;;;;;;;1.25;1.10;;;;;;;21.53;49.64;95590.75;5074545;28;20052;-76
2021/05/10 08:02:33;;;;;;;1.50;0.90;;;;;;;21.74;48.75;95584.84;5075730;28;20489;-76
2021/05/10 08:04:59;;;;;;;1.40;0.90;;;;;;;21.80;47.78;95596.94;5075147;28;20045;-75
2021/05/10 08:07:25;;;;;;;2.78;1.15;;;;;;;21.76;46.97;95588.78;5075453;28;20044;-75
2021/05/10 08:09:53;;;;;;;2.72;0.80;;;;;;;21.62;46.41;95588.09;5074023;28;20032;-76
2021/05/10 08:12:19;;;;;;;1.20;0.73;;;;;;;21.44;45.98;95584.56;5075601;28;20037;-76
2021/05/10 08:14:45;;;;;;;2.65;0.90;;;;;;;21.15;45.52;95593.06;5075162;28;20028;-75
2021/05/10 08:17:12;;;;;;;1.08;0.73;;;;;;;20.87;45.44;95599.34;5075135;28;20044;-76
2021/05/10 08:19:38;;;;;;;3.03;0.90;;;;;;;20.67;45.32;95619.25;5074887;28;20059;-76
2021/05/10 08:22:05;;;;;;;0.68;0.68;;;;;;;20.57;45.24;95627.47;5075064;28;20504;-76
2021/05/10 08:24:31;;;;;;;3.03;0.85;;;;;;;20.51;44.95;95625.22;5075204;28;20047;-75
2021/05/10 08:26:58;;;;;;;0.75;0.68;;;;;;;20.44;44.97;95626.41;5075750;28;20036;-75
2021/05/10 08:29:25;;;;;;;2.83;0.82;;;;;;;20.39;44.92;95639.03;5075387;28;20033;-77
2021/05/10 08:31:52;;;;;;;4.25;0.85;;;;;;;20.36;45.20;95645.78;5074894;28;20048;-76
2021/05/10 08:34:18;;;;;;;2.90;0.80;;;;;;;20.37;45.12;95623.41;5073747;28;20056;-77
2021/05/10 08:36:45;;;;;;;3.78;1.00;;;;;;;20.56;45.07;95622.44;5074230;28;20052;-78
2021/05/10 08:39:12;;;;;;;2.50;1.00;;;;;;;20.78;45.10;95622.47;5074989;28;20037;-78
2021/05/10 08:41:40;;;;;;;2.05;1.00;;;;;;;20.87;44.76;95627.84;5075253;28;20039;-78
2021/05/10 08:44:11;;;;;;;1.08;0.80;;;;;;;20.87;44.75;95633.19;5074879;28;20047;-78
2021/05/10 08:46:39;;;;;;;1.65;0.93;;;;;;;20.86;44.92;95626.28;5075157;28;20047;-79
2021/05/10 08:49:06;;;;;;;1.67;1.05;;;;;;;20.87;44.72;95614.53;5074724;28;20059;-78
2021/05/10 08:51:34;;;;;;;1.10;1.00;;;;;;;20.82;44.71;95609.34;5074573;28;20036;-78
2021/05/10 08:54:01;;;;;;;0.95;0.90;;;;;;;20.81;45.03;95623.72;5075040;28;20040;-78
2021/05/10 08:56:28;;;;;;;0.75;0.75;;;;;;;20.83;45.18;95627.69;5074402;28;20053;-78
2021/05/10 08:58:55;;;;;;;1.20;0.90;;;;;;;20.97;44.96;95624.94;5074613;28;20052;-78
2021/05/10 09:01:21;;;;;;;1.67;0.93;;;;;;;21.08;44.95;95633.47;5074535;28;20080;-78
2021/05/10 09:03:50;;;;;;;1.02;0.98;;;;;;;21.21;44.69;95645.16;5073852;28;20055;-78
2021/05/10 09:06:27;;;;;;;1.52;0.70;;;;;;;21.38;44.64;95649.81;5074585;28;20037;-78
2021/05/10 09:08:54;;;;;;;1.05;0.95;;;;;;;21.55;44.52;95647.25;5074328;28;20036;-78
2021/05/10 09:11:20;;;;;;;2.65;1.00;;;;;;;21.78;44.12;95655.97;5074432;28;20029;-78
2021/05/10 09:13:53;;;;;;;0.85;0.85;;;;;;;22.10;43.79;95654.00;5074562;28;20044;-78
2021/05/10 09:16:20;;;;;;;1.13;0.90;;;;;;;22.41;43.30;95651.25;5074573;28;20037;-78
2021/05/10 09:18:57;;;;;;;1.20;0.70;;;;;;;22.78;42.10;95638.34;5074288;28;20043;-78
2021/05/10 09:21:29;;;;;;;1.15;0.98;;;;;;;23.01;42.26;95662.28;5074204;28;20484;-78
2021/05/10 09:23:58;;;;;;;2.08;1.00;;;;;;;23.09;42.07;95670.28;5074017;28;20416;-78
2021/05/10 09:26:33;;;;;;;1.48;1.20;;;;;;;23.20;40.18;95656.59;5073930;28;20051;-78
2021/05/10 09:29:00;;;;;;;0.77;0.77;;;;;;;23.46;41.28;95648.50;5074208;28;20035;-78
2021/05/10 09:31:27;;;;;;;1.02;0.73;;;;;;;23.82;40.43;95649.97;5073927;28;20028;-78
2021/05/10 09:33:54;;;;;;;2.33;0.98;;;;;;;23.81;39.96;95659.09;5073573;28;20037;-78
2021/05/10 09:36:30;;;;;;;1.95;0.90;;;;;;;23.78;39.87;95657.84;5073640;28;20048;-78
2021/05/10 09:38:57;;;;;;;2.30;0.80;;;;;;;23.70;39.74;95669.34;5073885;28;20029;-78
2021/05/10 09:41:23;;;;;;;1.38;0.80;;;;;;;23.79;39.97;95672.81;5073904;28;20063;-78
2021/05/10 09:44:00;;;;;;;0.68;0.65;;;;;;;23.82;39.62;95655.31;5074123;28;20056;-78
2021/05/10 09:46:43;;;;;;;1.77;1.10;;;;;;;23.79;39.89;95639.88;5073665;28;20039;-78
2021/05/10 09:49:11;;;;;;;1.10;1.00;;;;;;;23.61;39.79;95625.78;5073775;28;20036;-78
2021/05/10 09:51:37;;;;;;;1.10;0.70;;;;;;;23.40;40.15;95623.81;5074006;28;20036;-78
2021/05/10 09:54:13;;;;;;;1.75;0.80;;;;;;;23.15;40.23;95632.69;5073932;28;20028;-78
2021/05/10 09:56:41;;;;;;;2.53;0.73;;;;;;;22.93;40.63;95647.81;5073664;28;20040;-78
2021/05/10 09:59:15;;;;;;;1.08;0.80;;;;;;;22.77;40.50;95652.06;5073513;28;20059;-78
2021/05/10 10:01:46;;;;;;;;;;;;;;;22.68;40.92;95665.44;5074393;28;20484;-79
2021/05/10 10:04:13;;;;;;;0.98;0.93;;;;;;;22.58;41.24;95676.44;5073821;28;19939;-79
2021/05/10 10:06:40;;;;;;;1.67;0.70;;;;;;;22.62;41.32;95680.03;5073118;28;20043;-79
2021/05/10 10:09:07;;;;;;;1.58;1.20;;;;;;;22.73;41.18;95683.97;5074136;28;20036;-79
2021/05/10 10:11:34;;;;;;;1.00;0.90;;;;;;;22.90;41.11;95697.31;5073154;28;20032;-79
2021/05/10 10:14:01;;;;;;;0.80;0.80;;;;;;;23.04;40.92;95691.84;5073138;28;20040;-79
2021/05/10 10:16:35;;;;;;;1.25;1.02;;;;;;;23.15;40.74;95700.34;5073934;28;20040;-79
2021/05/10 10:19:05;;;;;;;1.75;0.90;;;;;;;23.17;40.32;95705.38;5073249;28;20420;-79
2021/05/10 10:21:32;;;;;;;2.35;0.70;;;;;;;23.17;40.46;95718.75;5073613;28;20063;-79
2021/05/10 10:24:03;;;;;;;3.15;1.05;;;;;;;23.15;40.76;95729.75;5073456;28;20047;-79
2021/05/10 10:26:33;;;;;;;1.42;0.88;;;;;;;23.08;40.71;95727.56;5073172;28;20063;-79
2021/05/10 10:29:05;;;;;;;2.30;0.90;;;;;;;23.00;41.11;95714.16;5073759;28;20041;-79
2021/05/10 10:31:35;;;;;;;3.28;1.10;;;;;;;22.91;40.94;95727.53;5063219;28;20048;-79
2021/05/10 10:34:05;;;;;;;3.42;1.02;;;;;;;22.87;41.23;95732.72;5072970;28;20040;-79
2021/05/10 10:36:35;;;;;;;2.40;0.88;;;;;;;22.81;41.33;95714.50;5073078;28;20047;-79
2021/05/10 10:39:22;;;;;;;1.92;0.90;;;;;;;22.79;41.48;95714.00;5073240;28;20044;-79
2021/05/10 10:41:54;;;;;;;1.23;1.13;;;;;;;22.70;41.84;95720.13;5060696;28;20032;-79
2021/05/10 10:44:47;;;;;;;1.58;0.95;;;;;;;22.76;42.18;95728.75;5073185;28;20036;-79
2021/05/10 10:47:22;;;;;;;1.52;0.88;;;;;;;22.81;41.87;95722.50;5056017;28;20040;-79
2021/05/10 10:49:58;;;;;;;1.50;0.70;;;;;;;22.94;42.77;95734.16;5072897;28;20044;-79
2021/05/10 10:52:28;;;;;;;1.50;1.33;;;;;;;22.99;42.25;95729.41;5073160;28;20033;-79
2021/05/10 10:55:16;;;;;;;3.33;0.90;;;;;;;22.96;41.61;95729.25;5073154;28;20041;-79
2021/05/10 10:57:43;;;;;;;1.40;0.90;;;;;;;22.85;42.17;95724.22;5061754;28;20032;-79
2021/05/10 11:00:18;;;;;;;0.80;0.80;;;;;;;22.78;42.43;95739.94;5073100;28;20057;-79
2021/05/10 11:02:54;;;;;;;3.03;1.23;;;;;;;22.63;42.66;95735.84;5073024;28;20388;-79
2021/05/10 11:05:27;;;;;;;1.88;0.95;;;;;;;22.50;42.65;95745.56;5073439;28;20037;-79
2021/05/10 11:08:14;;;;;;;1.10;1.00;;;;;;;22.34;42.75;95749.75;5072590;28;20029;-79
2021/05/10 11:10:49;;;;;;;2.33;0.98;;;;;;;22.21;43.84;95772.00;5072899;28;20385;-79
2021/05/10 11:13:31;;;;;;;1.40;1.00;;;;;;;22.14;44.29;95779.69;5064201;28;20048;-78
2021/05/10 11:16:05;;;;;;;1.15;0.80;;;;;;;21.99;43.98;95786.22;5063913;28;20055;-79
2021/05/10 11:18:33;;;;;;;;;;;;;;;21.78;44.07;95791.28;5073732;28;20037;-79
2021/05/10 11:20:59;;;;;;;0.70;0.70;;;;;;;21.62;44.30;95791.66;5072945;28;19908;-79
2021/05/10 11:23:28;;;;;;;1.58;0.55;;;;;;;21.48;44.56;95799.75;5072448;28;20465;-79
2021/05/10 11:25:59;;;;;;;0.68;0.68;;;;;;;21.27;44.85;95795.94;5072724;28;20044;-79
2021/05/10 11:28:26;;;;;;;1.17;0.98;;;;;;;21.11;45.02;95800.84;5072491;28;20051;-79
2021/05/10 11:30:58;;;;;;;0.95;0.80;;;;;;;21.05;45.62;95796.69;5072520;28;20040;-79
2021/05/10 11:33:52;;;;;;;1.02;0.70;;;;;;;20.99;45.99;95797.91;5072313;28;20032;-79
2021/05/10 11:36:23;;;;;;;0.68;0.68;;;;;;;20.79;45.83;95794.59;5072535;28;20051;-79
2021/05/10 11:38:51;;;;;;;1.23;0.75;;;;;;;20.54;46.14;95803.88;5073110;28;20492;-79
2021/05/10 11:41:18;;;;;;;0.70;0.70;;;;;;;20.45;46.77;95825.09;5072998;28;20041;-79
2021/05/10 11:43:44;;;;;;;0.75;0.75;;;;;;;20.39;46.82;95826.28;5074298;28;20037;-79
2021/05/10 11:46:11;;;;;;;1.60;0.90;;;;;;;20.30;47.01;95825.34;5076248;28;20064;-79
2021/05/10 11:48:41;;;;;;;1.65;0.82;;;;;;;20.27;47.95;95834.72;5075467;28;20044;-79